Time;durP1;ratioP1;P1;durP2;ratioP2;P2;SDS_P1;SDS_P2;PMS_P1;PMS_P2;Temp;Humidity;BMP_temperature;BMP_pressure;BME280_temperature;BME280_humidity;BME280_pressure;Samples;Min_cycle;Max_cycle;Signal;HPM_P1;HPM_P2
2024/01/19 00:00:56;;;;;;;10.50;3.85;;;;;;;-2.74;100.00;100772.09;4991444;28;20022;-92
2024/01/19 00:03:21;;;;;;;5.38;3.30;;;;;;;-2.75;100.00;100770.44;4991340;28;20026;-93
2024/01/19 00:05:47;;;;;;;7.43;3.65;;;;;;;-2.79;100.00;100774.63;4996712;28;20030;-91
2024/01/19 00:08:12;;;;;;;4.75;3.03;;;;;;;-2.83;100.00;100778.81;4991325;28;20073;-92
2024/01/19 00:10:38;;;;;;;5.22;3.05;;;;;;;-2.80;100.00;100785.56;4991369;28;20038;-91
2024/01/19 00:13:03;;;;;;;5.70;3.05;;;;;;;-2.79;100.00;100784.72;4991177;28;20469;-91
2024/01/19 00:15:29;;;;;;;8.30;4.00;;;;;;;-2.79;100.00;100789.78;4999585;28;20037;-92
2024/01/19 00:17:54;;;;;;;7.10;3.58;;;;;;;-2.84;100.00;100783.88;5007100;28;20469;-91
2024/01/19 00:20:19;;;;;;;5.68;3.67;;;;;;;-2.82;100.00;100785.56;5001018;28;20440;-91
2024/01/19 00:22:45;;;;;;;7.25;3.05;;;;;;;-2.89;100.00;100781.31;4993317;28;20046;-91
2024/01/19 00:25:10;;;;;;;5.35;3.35;;;;;;;-2.91;100.00;100777.09;5003157;28;20022;-91
2024/01/19 00:27:35;;;;;;;6.65;3.17;;;;;;;-2.92;100.00;100793.13;4991949;28;20088;-90
2024/01/19 00:30:01;;;;;;;5.78;3.20;;;;;;;-2.89;100.00;100783.00;4992353;28;20042;-91
2024/01/19 00:32:26;;;;;;;7.47;3.42;;;;;;;-2.80;100.00;100788.09;4992086;28;20156;-92
2024/01/19 00:34:52;;;;;;;10.88;3.35;;;;;;;-2.76;100.00;100788.94;4991216;28;20022;-91
2024/01/19 00:37:17;;;;;;;5.45;3.25;;;;;;;-2.74;100.00;100793.16;4991298;28;20378;-91
2024/01/19 00:39:43;;;;;;;4.88;3.05;;;;;;;-2.80;100.00;100785.56;4991594;28;20495;-91
2024/01/19 00:42:08;;;;;;;5.10;3.60;;;;;;;-2.78;100.00;100796.50;4991225;28;20030;-91
2024/01/19 00:44:33;;;;;;;8.43;3.30;;;;;;;-2.78;100.00;100798.19;4991456;28;20187;-90
2024/01/19 00:46:59;;;;;;;7.13;2.50;;;;;;;-2.78;100.00;100796.50;4990889;28;20022;-91
2024/01/19 00:49:24;;;;;;;6.05;2.47;;;;;;;-2.75;100.00;100800.75;4992450;28;20109;-91
2024/01/19 00:51:50;;;;;;;7.93;2.90;;;;;;;-2.73;100.00;100804.97;4991948;28;20026;-91
2024/01/19 00:54:16;;;;;;;7.57;3.08;;;;;;;-2.71;100.00;100802.41;4990920;28;20042;-92
2024/01/19 00:56:41;;;;;;;3.83;2.42;;;;;;;-2.75;100.00;100801.59;4991753;28;20093;-91
2024/01/19 00:59:07;;;;;;;5.43;2.60;;;;;;;-2.72;100.00;100806.63;4990537;28;20468;-91
2024/01/19 01:01:32;;;;;;;7.38;2.70;;;;;;;-2.75;100.00;100800.75;4992208;28;20200;-91
2024/01/19 01:03:58;;;;;;;6.63;2.67;;;;;;;-2.72;100.00;100801.59;4993513;28;20503;-90
2024/01/19 01:06:24;;;;;;;6.95;2.75;;;;;;;-2.73;100.00;100799.91;4995706;28;20023;-91
2024/01/19 01:08:50;;;;;;;6.40;3.13;;;;;;;-2.64;100.00;100794.84;4994466;28;20477;-91
2024/01/19 01:11:15;;;;;;;5.15;3.10;;;;;;;-2.65;100.00;100794.88;4995989;28;20091;-92
2024/01/19 01:13:40;;;;;;;5.88;3.75;;;;;;;-2.57;100.00;100795.72;4993961;28;20061;-91
2024/01/19 01:16:06;;;;;;;11.57;3.53;;;;;;;-2.69;100.00;100796.53;4994876;28;20035;-92
2024/01/19 01:18:31;;;;;;;11.90;4.57;;;;;;;-2.69;100.00;100796.53;4995426;28;20457;-92
2024/01/19 01:20:57;;;;;;;6.85;3.47;;;;;;;-2.73;100.00;100802.44;4995550;28;20130;-92
2024/01/19 01:23:24;;;;;;;9.75;4.25;;;;;;;-2.70;100.00;100804.97;4995730;28;20412;-93
2024/01/19 01:25:49;;;;;;;12.45;3.63;;;;;;;-2.69;100.00;100795.69;4995205;28;20062;-92
2024/01/19 01:28:15;;;;;;;6.95;3.85;;;;;;;-2.69;100.00;100799.06;4995557;28;20057;-92
2024/01/19 01:30:41;;;;;;;7.18;3.80;;;;;;;-2.72;100.00;100806.63;4995088;28;20022;-92
2024/01/19 01:33:06;;;;;;;9.15;3.55;;;;;;;-2.73;100.00;100811.66;4993782;28;20069;-92
2024/01/19 01:35:32;;;;;;;6.25;4.18;;;;;;;-2.73;100.00;100819.25;4994831;28;20076;-91
2024/01/19 01:37:58;;;;;;;6.00;3.05;;;;;;;-2.72;100.00;100821.78;4995515;28;20025;-91
2024/01/19 01:40:23;;;;;;;8.32;3.17;;;;;;;-2.72;100.00;100816.75;4995707;28;20065;-91
2024/01/19 01:42:49;;;;;;;8.57;3.50;;;;;;;-2.73;100.00;100815.06;4993558;28;20514;-92
2024/01/19 01:45:14;;;;;;;3.80;3.00;;;;;;;-2.75;100.00;100819.25;4993741;28;20100;-91
2024/01/19 01:47:39;;;;;;;6.88;2.78;;;;;;;-2.70;100.00;100831.91;4995017;28;20432;-92
2024/01/19 01:50:06;;;;;;;4.68;2.97;;;;;;;-2.71;100.00;100828.53;4994983;28;20026;-93
2024/01/19 01:52:32;;;;;;;4.60;3.03;;;;;;;-2.71;100.00;100823.47;4995096;28;20026;-92
2024/01/19 01:54:57;;;;;;;6.78;2.97;;;;;;;-2.68;100.00;100832.75;4995100;28;20026;-92
2024/01/19 01:57:24;;;;;;;4.97;3.22;;;;;;;-2.72;100.00;100831.06;4995406;28;20084;-91
2024/01/19 01:59:51;;;;;;;5.82;2.70;;;;;;;-2.68;100.00;100843.72;4994247;28;20022;-92
2024/01/19 02:02:16;;;;;;;5.25;2.63;;;;;;;-2.65;100.00;100848.75;4995233;28;20041;-92
2024/01/19 02:04:42;;;;;;;7.22;3.22;;;;;;;-2.70;100.00;100840.34;4994187;28;20385;-92
2024/01/19 02:07:08;;;;;;;6.72;2.97;;;;;;;-2.68;100.00;100853.81;4994258;28;20109;-93
2024/01/19 02:09:33;;;;;;;6.07;2.88;;;;;;;-2.70;100.00;100850.44;4994077;28;20041;-92
2024/01/19 02:11:59;;;;;;;5.07;3.22;;;;;;;-2.71;100.00;100858.00;4994683;28;20065;-93
2024/01/19 02:14:25;;;;;;;5.68;2.60;;;;;;;-2.66;100.00;100856.34;4997499;28;20113;-92
2024/01/19 02:16:50;;;;;;;4.85;3.00;;;;;;;-2.67;100.00;100860.53;5001124;28;20022;-92
2024/01/19 02:19:15;;;;;;;5.93;2.80;;;;;;;-2.65;100.00;100863.94;4999567;28;20392;-92
2024/01/19 02:21:41;;;;;;;9.18;3.50;;;;;;;-2.63;100.00;100861.41;5009421;28;20021;-92
2024/01/19 02:24:14;;;;;;;5.78;3.30;;;;;;;-2.60;100.00;100862.25;5013599;28;20025;-92
2024/01/19 02:26:40;;;;;;;6.45;2.80;;;;;;;-2.65;100.00;100863.09;5003270;28;20473;-92
2024/01/19 02:29:06;;;;;;;5.32;3.08;;;;;;;-2.66;100.00;100867.31;4993928;28;20032;-92
2024/01/19 02:31:31;;;;;;;6.40;2.80;;;;;;;-2.66;100.00;100867.31;4993850;28;20029;-92
2024/01/19 02:33:57;;;;;;;5.03;2.42;;;;;;;-2.65;100.00;100871.50;4994724;28;20026;-93
2024/01/19 02:36:22;;;;;;;4.25;2.60;;;;;;;-2.65;100.00;100874.03;4994815;28;20477;-92
2024/01/19 02:38:48;;;;;;;4.95;2.55;;;;;;;-2.70;100.00;100880.75;4995140;28;20018;-93
2024/01/19 02:41:13;;;;;;;6.13;4.35;;;;;;;-2.73;100.00;100883.28;4994962;28;20435;-92
2024/01/19 02:43:38;;;;;;;5.70;2.70;;;;;;;-2.73;100.00;100885.81;4993324;28;20034;-91
2024/01/19 02:46:04;;;;;;;5.45;2.72;;;;;;;-2.74;100.00;100881.56;4993170;28;20033;-91
2024/01/19 02:48:29;;;;;;;5.97;2.88;;;;;;;-2.75;100.00;100884.94;4993035;28;20030;-91
2024/01/19 02:50:54;;;;;;;9.98;3.80;;;;;;;-2.77;100.00;100881.56;4994475;28;20484;-91
2024/01/19 02:53:20;;;;;;;6.32;3.00;;;;;;;-2.71;100.00;100884.09;4993193;28;20049;-91
2024/01/19 02:55:45;;;;;;;4.45;2.58;;;;;;;-2.78;100.00;100881.53;4994476;28;20101;-90
2024/01/19 02:58:11;;;;;;;7.75;3.45;;;;;;;-2.84;100.00;100889.94;4993228;28;20023;-91
2024/01/19 03:00:36;;;;;;;8.80;3.42;;;;;;;-2.84;100.00;100887.44;4992491;28;20030;-91
2024/01/19 03:03:01;;;;;;;5.35;2.83;;;;;;;-2.85;100.00;100893.31;4994650;28;20029;-90
2024/01/19 03:05:27;;;;;;;8.48;3.42;;;;;;;-2.86;100.00;100894.97;4998344;28;20072;-90
2024/01/19 03:07:52;;;;;;;5.13;3.20;;;;;;;-2.98;100.00;100894.09;5014407;28;20065;-91
2024/01/19 03:10:17;;;;;;;5.40;3.03;;;;;;;-2.92;100.00;100910.13;5012325;28;20041;-91
2024/01/19 03:12:43;;;;;;;4.88;3.10;;;;;;;-2.91;100.00;100905.91;4994074;28;20033;-91
2024/01/19 03:15:08;;;;;;;8.63;2.92;;;;;;;-2.90;100.00;100897.47;4994282;28;20054;-91
2024/01/19 03:17:34;;;;;;;7.05;3.67;;;;;;;-2.86;100.00;100912.66;4994722;28;20030;-91
2024/01/19 03:20:00;;;;;;;8.88;3.97;;;;;;;-2.87;100.00;100912.69;4994186;28;20069;-91
2024/01/19 03:22:26;;;;;;;5.35;3.30;;;;;;;-2.93;100.00;100913.47;4992744;28;20026;-91
2024/01/19 03:24:51;;;;;;;13.50;3.78;;;;;;;-2.95;100.00;100917.69;4993821;28;20048;-92
2024/01/19 03:27:16;;;;;;;8.57;4.07;;;;;;;-2.95;100.00;100914.28;5009399;28;20535;-91
2024/01/19 03:29:42;;;;;;;6.30;3.90;;;;;;;-2.95;100.00;100909.25;5012213;28;20552;-91
2024/01/19 03:32:07;;;;;;;8.57;4.07;;;;;;;-2.96;100.00;100913.47;5012151;28;20121;-91
2024/01/19 03:34:33;;;;;;;7.22;4.82;;;;;;;-2.93;100.00;100912.63;5012160;28;20491;-91
2024/01/19 03:37:03;;;;;;;6.60;4.50;;;;;;;-2.93;100.00;100913.47;5012763;28;20026;-91
2024/01/19 03:39:29;;;;;;;6.82;3.90;;;;;;;-2.91;100.00;100916.00;5011734;28;20022;-91
2024/01/19 03:41:55;;;;;;;6.35;3.90;;;;;;;-2.93;100.00;100913.47;4995594;28;20031;-91
2024/01/19 03:44:20;;;;;;;9.25;4.45;;;;;;;-2.94;100.00;100910.94;4993878;28;20389;-91
2024/01/19 03:46:46;;;;;;;12.80;5.05;;;;;;;-2.95;100.00;100910.13;4993445;28;20034;-91
2024/01/19 03:49:11;;;;;;;7.15;3.92;;;;;;;-2.90;100.00;100920.22;4993603;28;20022;-90
2024/01/19 03:51:37;;;;;;;7.22;3.95;;;;;;;-2.92;100.00;100912.66;4993554;28;20026;-91
2024/01/19 03:54:02;;;;;;;9.07;4.75;;;;;;;-2.92;100.00;100916.88;4992154;28;20065;-91
2024/01/19 03:56:29;;;;;;;12.23;6.03;;;;;;;-2.90;100.00;100913.50;5006997;28;20080;-91
2024/01/19 03:58:54;;;;;;;9.88;4.10;;;;;;;-2.91;100.00;100905.91;5011751;28;20029;-91
2024/01/19 04:01:19;;;;;;;7.65;4.35;;;;;;;-3.10;100.00;100915.06;5013030;28;20080;-91
2024/01/19 04:03:45;;;;;;;8.07;4.35;;;;;;;-3.02;100.00;100916.81;5012111;28;20034;-92
2024/01/19 04:06:10;;;;;;;7.72;4.15;;;;;;;-2.94;100.00;100906.75;5012813;28;20053;-91
2024/01/19 04:08:35;;;;;;;8.70;4.43;;;;;;;-2.94;100.00;100905.91;5013097;28;20435;-92
2024/01/19 04:11:01;;;;;;;8.45;4.10;;;;;;;-2.94;100.00;100916.00;4998007;28;20036;-91
2024/01/19 04:13:27;;;;;;;9.48;4.60;;;;;;;-2.93;100.00;100912.63;4991975;28;20034;-91
2024/01/19 04:15:52;;;;;;;6.90;3.88;;;;;;;-2.91;100.00;100921.91;4991166;28;20026;-91
2024/01/19 04:18:17;;;;;;;9.85;4.13;;;;;;;-2.92;100.00;100920.22;4991146;28;20389;-91
2024/01/19 04:20:43;;;;;;;8.65;4.07;;;;;;;-2.91;100.00;100926.13;4992561;28;20022;-91
2024/01/19 04:23:08;;;;;;;12.23;4.60;;;;;;;-2.92;100.00;100921.91;4991287;28;20027;-92
2024/01/19 04:25:33;;;;;;;4.00;2.95;;;;;;;-2.93;100.00;100923.56;4992595;28;20434;-92
2024/01/19 04:27:59;;;;;;;6.30;3.10;;;;;;;-2.97;100.00;100926.09;4991261;28;20508;-91
2024/01/19 04:30:24;;;;;;;7.93;3.53;;;;;;;-2.93;100.00;100925.25;4992396;28;20366;-91
2024/01/19 04:32:49;;;;;;;7.03;3.97;;;;;;;-2.97;100.00;100923.56;4992476;28;20030;-92
2024/01/19 04:35:15;;;;;;;8.50;3.90;;;;;;;-2.94;100.00;100926.94;4992308;28;20030;-91
2024/01/19 04:37:40;;;;;;;12.48;3.72;;;;;;;-2.93;100.00;100922.72;4995332;28;20029;-91
2024/01/19 04:40:06;;;;;;;6.10;3.72;;;;;;;-3.01;100.00;100915.13;5006060;28;20021;-91
2024/01/19 04:42:31;;;;;;;9.95;4.03;;;;;;;-2.93;100.00;100922.72;5016000;28;20029;-92
2024/01/19 04:44:57;;;;;;;8.82;3.90;;;;;;;-2.87;100.00;100925.31;5010990;28;20034;-91
2024/01/19 04:47:22;;;;;;;9.40;3.30;;;;;;;-2.98;100.00;100930.28;4996378;28;20030;-91
2024/01/19 04:49:48;;;;;;;9.20;3.85;;;;;;;-2.92;100.00;100934.53;4994922;28;20018;-90
2024/01/19 04:52:13;;;;;;;10.27;3.63;;;;;;;-2.90;100.00;100937.91;4995935;28;20385;-91
2024/01/19 04:54:38;;;;;;;8.48;4.55;;;;;;;-3.05;100.00;100942.03;4998144;28;20505;-91
2024/01/19 04:57:04;;;;;;;6.88;4.30;;;;;;;-3.02;100.00;100939.53;5015564;28;20399;-91
2024/01/19 04:59:29;;;;;;;10.10;4.60;;;;;;;-3.03;100.00;100927.72;5015685;28;20026;-91
2024/01/19 05:01:55;;;;;;;6.38;3.85;;;;;;;-3.05;100.00;100934.47;5014148;28;20116;-91
2024/01/19 05:04:22;;;;;;;6.75;4.07;;;;;;;-3.02;100.00;100939.53;5015510;28;20030;-91
2024/01/19 05:06:47;;;;;;;5.50;4.22;;;;;;;-3.01;100.00;100943.72;4999836;28;20589;-91
2024/01/19 05:09:13;;;;;;;9.45;4.03;;;;;;;-3.07;100.00;100936.13;4993923;28;20042;-91
2024/01/19 05:11:38;;;;;;;7.13;3.88;;;;;;;-2.98;100.00;100945.44;5012591;28;20095;-91
2024/01/19 05:14:06;;;;;;;10.07;4.18;;;;;;;-3.02;100.00;100947.09;5015265;28;20499;-92
2024/01/19 05:16:31;;;;;;;5.82;4.65;;;;;;;-3.05;100.00;100943.69;5015133;28;20041;-91
2024/01/19 05:18:56;;;;;;;7.85;4.65;;;;;;;-3.07;100.00;100941.19;5015237;28;20022;-90
2024/01/19 05:21:22;;;;;;;7.72;4.15;;;;;;;-3.06;100.00;100947.06;5015130;28;20028;-91
2024/01/19 05:23:47;;;;;;;5.90;3.97;;;;;;;-3.13;100.00;100946.19;5014014;28;20029;-91
2024/01/19 05:26:13;;;;;;;7.80;3.92;;;;;;;-3.31;100.00;100954.47;4999901;28;20022;-91
2024/01/19 05:28:39;;;;;;;11.05;4.43;;;;;;;-3.20;100.00;100957.06;4995586;28;20500;-91
2024/01/19 05:31:04;;;;;;;11.80;5.50;;;;;;;-3.24;100.00;100952.84;4996428;28;20033;-91
2024/01/19 05:33:31;;;;;;;5.18;3.85;;;;;;;-3.18;100.00;100955.41;4996223;28;20026;-91
2024/01/19 05:35:56;;;;;;;5.93;4.47;;;;;;;-3.23;100.00;100952.84;4994471;28;20062;-91
2024/01/19 05:38:22;;;;;;;8.57;4.50;;;;;;;-3.18;100.00;100957.94;4996248;28;20062;-91
2024/01/19 05:40:48;;;;;;;4.90;3.70;;;;;;;-3.11;100.00;100964.72;4995729;28;20106;-91
2024/01/19 05:43:13;;;;;;;10.25;4.05;;;;;;;-3.10;100.00;100960.50;4995980;28;20102;-91
2024/01/19 05:45:38;;;;;;;8.55;5.07;;;;;;;-3.08;100.00;100969.78;4994629;28;20072;-91
2024/01/19 05:48:04;;;;;;;7.55;3.97;;;;;;;-3.10;100.00;100971.44;4993619;28;20022;-91
2024/01/19 05:50:29;;;;;;;6.50;3.95;;;;;;;-3.01;100.00;100973.19;4994486;28;20026;-91
2024/01/19 05:52:57;;;;;;;10.07;4.53;;;;;;;-3.01;100.00;100966.47;4995944;28;20485;-90
2024/01/19 05:55:22;;;;;;;6.53;3.55;;;;;;;-3.03;100.00;100973.19;5003060;28;20040;-91
2024/01/19 05:57:48;;;;;;;8.95;4.20;;;;;;;-3.06;100.00;100970.63;5008810;28;20018;-91
2024/01/19 06:00:13;;;;;;;5.97;2.83;;;;;;;-3.11;100.00;100984.06;4994370;28;20465;-91
2024/01/19 06:02:39;;;;;;;4.60;3.55;;;;;;;-3.09;100.00;100982.41;4994350;28;20037;-91
2024/01/19 06:05:04;;;;;;;6.97;3.45;;;;;;;-3.09;100.00;100989.97;4994989;28;20504;-91
2024/01/19 06:07:32;;;;;;;7.90;2.88;;;;;;;-3.09;100.00;100989.97;4994551;28;20362;-91
2024/01/19 06:09:58;;;;;;;5.53;3.30;;;;;;;-3.16;100.00;100995.81;4995302;28;20022;-92
2024/01/19 06:12:23;;;;;;;9.38;3.47;;;;;;;-3.24;100.00;100994.06;4995390;28;20069;-91
2024/01/19 06:14:48;;;;;;;5.40;3.15;;;;;;;-3.24;100.00;100991.56;4995552;28;20101;-91
2024/01/19 06:17:15;;;;;;;5.63;2.88;;;;;;;-3.21;100.00;101010.09;5001036;28;20410;-92
2024/01/19 06:19:41;;;;;;;8.32;3.03;;;;;;;-3.23;100.00;101005.00;5015093;28;20037;-92
2024/01/19 06:22:06;;;;;;;6.57;2.55;;;;;;;-3.12;100.00;101013.53;5014957;28;20101;-91
2024/01/19 06:24:35;;;;;;;5.30;3.00;;;;;;;-3.19;100.00;101006.75;5009913;28;20022;-92
2024/01/19 06:27:00;;;;;;;4.60;3.60;;;;;;;-3.14;100.00;101019.41;4995087;28;20026;-91
2024/01/19 06:29:26;;;;;;;4.70;2.90;;;;;;;-3.15;100.00;101017.69;4995026;28;20033;-91
2024/01/19 06:31:51;;;;;;;5.00;2.80;;;;;;;-3.13;100.00;101009.28;4995157;28;20023;-91
2024/01/19 06:34:17;;;;;;;6.72;3.08;;;;;;;-3.14;100.00;101025.28;4994801;28;20041;-91
2024/01/19 06:36:44;;;;;;;4.13;2.95;;;;;;;-3.19;100.00;101021.03;4994276;28;20030;-91
2024/01/19 06:39:11;;;;;;;7.95;2.85;;;;;;;-3.21;100.00;101023.56;5003569;28;20500;-91
2024/01/19 06:41:43;;;;;;;6.60;3.50;;;;;;;-3.17;100.00;101027.81;5013954;28;20065;-91
2024/01/19 06:44:12;;;;;;;7.15;3.40;;;;;;;-3.24;100.00;101018.47;5012592;28;20076;-92
2024/01/19 06:46:38;;;;;;;7.53;3.45;;;;;;;-3.24;100.00;101026.06;5013596;28;20072;-91
2024/01/19 06:49:04;;;;;;;7.32;3.30;;;;;;;-3.23;100.00;101031.09;5013205;28;20072;-91
2024/01/19 06:51:29;;;;;;;7.18;2.90;;;;;;;-3.20;100.00;101039.53;5012541;28;20026;-91
2024/01/19 06:53:56;;;;;;;6.47;2.95;;;;;;;-3.20;100.00;101034.50;5003620;28;20492;-90
2024/01/19 06:56:22;;;;;;;8.30;3.65;;;;;;;-3.20;100.00;101034.50;4993945;28;20033;-91
2024/01/19 06:58:47;;;;;;;9.45;3.42;;;;;;;-3.10;100.00;101049.72;4992208;28;20014;-91
2024/01/19 07:01:13;;;;;;;4.00;2.47;;;;;;;-3.29;100.00;101041.16;4992503;28;20485;-90
2024/01/19 07:03:38;;;;;;;6.22;3.22;;;;;;;-3.29;100.00;101045.34;4992520;28;20481;-90
2024/01/19 07:06:04;;;;;;;4.53;3.20;;;;;;;-3.26;100.00;101050.44;5006907;28;20021;-91
2024/01/19 07:08:29;;;;;;;4.65;2.83;;;;;;;-3.27;100.00;101048.72;5012040;28;20498;-91
2024/01/19 07:10:54;;;;;;;14.77;6.72;;;;;;;-3.33;100.00;101056.25;5013692;28;20079;-91
2024/01/19 07:13:20;;;;;;;7.45;3.83;;;;;;;-3.26;100.00;101058.84;5013154;28;20624;-91
2024/01/19 07:15:45;;;;;;;6.72;3.40;;;;;;;-3.24;100.00;101062.25;5011581;28;20511;-91
2024/01/19 07:18:11;;;;;;;4.60;2.97;;;;;;;-3.29;100.00;101060.47;5013175;28;20033;-91
2024/01/19 07:20:36;;;;;;;9.32;3.33;;;;;;;-3.24;100.00;101061.41;5013057;28;20464;-91
2024/01/19 07:23:03;;;;;;;5.88;3.50;;;;;;;-3.29;100.00;101057.97;5011794;28;20107;-92
2024/01/19 07:25:28;;;;;;;10.25;5.15;;;;;;;-3.29;100.00;101063.00;5011610;28;20026;-91
2024/01/19 07:27:54;;;;;;;8.20;3.25;;;;;;;-3.30;100.00;101061.31;5013032;28;20065;-92
2024/01/19 07:30:19;;;;;;;9.82;3.72;;;;;;;-3.28;100.00;101059.66;5011247;28;20029;-91
2024/01/19 07:32:44;;;;;;;6.72;2.95;;;;;;;-3.27;100.00;101061.34;5012881;28;20163;-90
2024/01/19 07:35:10;;;;;;;7.78;3.35;;;;;;;-3.24;100.00;101069.81;5012696;28;20030;-91
2024/01/19 07:37:35;;;;;;;12.20;3.22;;;;;;;-3.16;100.00;101062.31;5009756;28;20108;-91
2024/01/19 07:40:00;;;;;;;7.63;3.50;;;;;;;-3.11;100.00;101065.72;5012914;28;20022;-91
2024/01/19 07:42:26;;;;;;;7.55;3.33;;;;;;;-3.15;100.00;101069.03;5012877;28;20051;-91
2024/01/19 07:44:51;;;;;;;12.52;3.58;;;;;;;-3.12;100.00;101075.78;5012366;28;20046;-91
2024/01/19 07:47:17;;;;;;;9.23;3.50;;;;;;;-3.22;100.00;101074.84;5012668;28;20025;-90
2024/01/19 07:49:42;;;;;;;7.25;3.42;;;;;;;-3.19;100.00;101085.00;5012741;28;20026;-91
2024/01/19 07:52:07;;;;;;;6.85;3.55;;;;;;;-3.18;100.00;101078.28;5011962;28;20037;-91
2024/01/19 07:54:33;;;;;;;6.65;3.50;;;;;;;-3.17;100.00;101088.41;5011079;28;20017;-91
2024/01/19 07:56:58;;;;;;;8.40;3.72;;;;;;;-3.13;100.00;101085.03;5012593;28;20037;-90
2024/01/19 07:59:23;;;;;;;9.02;4.18;;;;;;;-3.13;100.00;101082.53;5014062;28;20037;-90
2024/01/19 08:01:49;;;;;;;10.55;4.47;;;;;;;-3.11;100.00;101075.81;4998929;28;20034;-90
2024/01/19 08:04:15;;;;;;;9.85;3.90;;;;;;;-3.12;100.00;101079.19;5000299;28;20097;-90
2024/01/19 08:06:41;;;;;;;9.77;4.00;;;;;;;-3.11;100.00;101080.03;5013697;28;20566;-91
2024/01/19 08:09:07;;;;;;;12.07;3.88;;;;;;;-3.10;100.00;101087.59;5014126;28;20034;-90
2024/01/19 08:11:33;;;;;;;14.10;4.43;;;;;;;-3.09;100.00;101078.34;5013769;28;20510;-91
2024/01/19 08:13:58;;;;;;;7.75;4.20;;;;;;;-3.11;100.00;101087.59;5014399;28;20042;-91
2024/01/19 08:16:24;;;;;;;13.45;3.75;;;;;;;-3.13;100.00;101086.72;5012167;28;20022;-91
2024/01/19 08:18:49;;;;;;;5.75;3.50;;;;;;;-3.05;100.00;101088.50;5014602;28;20052;-91
2024/01/19 08:21:14;;;;;;;10.13;4.28;;;;;;;-3.08;100.00;101085.09;5014843;28;20116;-91
2024/01/19 08:23:40;;;;;;;13.10;4.50;;;;;;;-3.03;100.00;101083.44;5016892;28;20025;-93
2024/01/19 08:26:06;;;;;;;9.73;3.60;;;;;;;-3.04;100.00;101082.59;5025758;28;20026;-93
2024/01/19 08:28:32;;;;;;;7.07;2.97;;;;;;;-3.11;100.00;101080.84;5022201;28;20026;-95
2024/01/19 08:30:57;;;;;;;9.07;4.28;;;;;;;-3.03;100.00;101094.38;5010980;28;20065;-93
2024/01/19 08:33:22;;;;;;;11.30;4.03;;;;;;;-3.04;100.00;101090.19;5001453;28;20035;-93
2024/01/19 08:35:48;;;;;;;5.93;3.65;;;;;;;-3.01;100.00;101100.31;5000347;28;20053;-93
2024/01/19 08:38:13;;;;;;;12.15;4.15;;;;;;;-2.99;100.00;101100.31;5004833;28;20041;-92
2024/01/19 08:40:39;;;;;;;9.07;3.83;;;;;;;-3.01;100.00;101092.72;5004517;28;20531;-90
2024/01/19 08:43:04;;;;;;;9.02;4.22;;;;;;;-2.89;100.00;101106.31;5007588;28;20033;-94
2024/01/19 08:45:29;;;;;;;14.57;5.50;;;;;;;-2.89;100.00;101111.34;5027331;28;20465;-92
2024/01/19 08:47:58;;;;;;;15.18;5.13;;;;;;;-2.80;100.00;101103.88;5012794;28;20022;-91
2024/01/19 08:50:24;;;;;;;12.48;5.55;;;;;;;-2.68;100.00;101106.47;5010005;28;20022;-92
2024/01/19 08:52:50;;;;;;;13.52;5.63;;;;;;;-2.68;100.00;101108.13;5011504;28;20022;-91
2024/01/19 08:55:16;;;;;;;12.25;5.72;;;;;;;-2.66;100.00;101109.00;4999665;28;20026;-91
2024/01/19 08:57:41;;;;;;;9.48;4.93;;;;;;;-2.65;100.00;101116.59;4993107;28;20444;-92
2024/01/19 09:00:07;;;;;;;15.00;6.10;;;;;;;-2.60;100.00;101119.16;5004416;28;20028;-90
2024/01/19 09:02:33;;;;;;;13.32;6.90;;;;;;;-2.54;100.00;101116.66;4996994;28;20022;-90
2024/01/19 09:04:59;;;;;;;17.00;7.07;;;;;;;-2.52;100.00;101121.75;4997777;28;20106;-91
2024/01/19 09:07:24;;;;;;;17.52;7.07;;;;;;;-2.38;100.00;101122.69;4991100;28;20106;-92
2024/01/19 09:09:50;;;;;;;13.95;7.57;;;;;;;-2.14;100.00;101126.22;4992150;28;20495;-90
2024/01/19 09:12:15;;;;;;;18.73;8.25;;;;;;;-2.05;100.00;101123.72;4991619;28;20069;-90
2024/01/19 09:14:40;;;;;;;14.85;7.95;;;;;;;-2.11;100.00;101126.22;4991334;28;20034;-91
2024/01/19 09:17:06;;;;;;;17.42;7.45;;;;;;;-2.11;100.00;101134.66;4989936;28;20050;-95
2024/01/19 09:19:31;;;;;;;12.80;6.35;;;;;;;-2.09;100.00;101132.16;4990436;28;20485;-92
2024/01/19 09:21:57;;;;;;;13.50;5.40;;;;;;;-2.07;100.00;101132.97;4989063;28;20035;-92
2024/01/19 09:24:23;;;;;;;13.43;6.45;;;;;;;-2.00;100.00;101127.13;4995027;28;20034;-91
2024/01/19 09:26:48;;;;;;;19.70;6.25;;;;;;;-1.97;100.00;101127.16;4992753;28;20396;-91
2024/01/19 09:29:13;;;;;;;11.52;5.85;;;;;;;-1.84;100.00;101133.13;4993657;28;20114;-91
2024/01/19 09:31:46;;;;;;;14.30;6.80;;;;;;;-1.81;100.00;101133.97;4992544;28;20033;-90
2024/01/19 09:34:12;;;;;;;13.90;6.03;;;;;;;-1.80;100.00;101129.78;4992833;28;20041;-90
2024/01/19 09:36:39;;;;;;;13.68;6.13;;;;;;;-1.73;100.00;101132.31;4993506;28;20030;-90
2024/01/19 09:39:05;;;;;;;11.45;6.28;;;;;;;-1.68;100.00;101131.47;4992944;28;20060;-90
2024/01/19 09:41:57;;;;;;;13.07;6.35;;;;;;;-1.58;100.00;101130.69;4993170;28;20026;-90
2024/01/19 09:44:24;;;;;;;16.63;6.43;;;;;;;-1.47;100.00;101136.63;4995744;28;20026;-90
2024/01/19 09:46:52;;;;;;;13.98;6.57;;;;;;;-1.38;100.00;101135.81;4992671;28;20080;-90
2024/01/19 09:49:31;;;;;;;15.90;7.50;;;;;;;-1.29;100.00;101138.38;4992117;28;20440;-90
2024/01/19 09:52:15;;;;;;;14.00;7.65;;;;;;;-1.17;100.00;101142.59;4992285;28;20053;-90
2024/01/19 09:54:41;;;;;;;16.42;7.85;;;;;;;-1.17;100.00;101135.00;4992131;28;20034;-90
2024/01/19 09:57:07;;;;;;;16.63;7.78;;;;;;;-1.08;100.00;101138.41;4992856;28;20033;-90
2024/01/19 09:59:33;;;;;;;20.00;7.28;;;;;;;-0.95;100.00;101149.44;4993162;28;20062;-90
2024/01/19 10:02:02;;;;;;;18.90;7.75;;;;;;;-0.78;100.00;101151.97;4993383;28;20018;-90
2024/01/19 10:04:27;;;;;;;17.50;8.45;;;;;;;-0.46;100.00;101156.22;4993058;28;20484;-90
2024/01/19 10:06:54;;;;;;;16.80;8.40;;;;;;;-0.20;100.00;101158.69;4994276;28;20073;-90
2024/01/19 10:09:21;;;;;;;15.25;7.85;;;;;;;-0.11;100.00;101151.06;4992705;28;20034;-90
2024/01/19 10:11:50;;;;;;;18.77;9.00;;;;;;;0.25;100.00;101154.38;4993388;28;20100;-90
2024/01/19 10:14:17;;;;;;;21.13;7.75;;;;;;;1.01;100.00;101154.84;4994978;28;20433;-90
2024/01/19 10:16:43;;;;;;;23.27;9.27;;;;;;;1.39;100.00;101159.66;4991260;28;20038;-90
2024/01/19 10:19:12;;;;;;;14.70;8.23;;;;;;;2.11;100.00;101146.22;4992300;28;20026;-90
2024/01/19 10:21:38;;;;;;;17.58;8.23;;;;;;;2.90;100.00;101151.19;4992569;28;20031;-90
2024/01/19 10:24:11;;;;;;;17.50;7.88;;;;;;;3.15;100.00;101153.38;4992129;28;20030;-90
2024/01/19 10:26:46;;;;;;;19.63;8.57;;;;;;;4.40;100.00;101157.94;4991757;28;20033;-90
2024/01/19 10:29:13;;;;;;;18.60;8.40;;;;;;;5.49;92.51;101154.66;4993106;28;20054;-90
2024/01/19 10:31:41;;;;;;;16.63;7.68;;;;;;;5.18;93.34;101157.13;4991782;28;20018;-90
2024/01/19 10:34:16;;;;;;;16.50;7.68;;;;;;;4.50;96.14;101161.16;4991471;28;20045;-90
2024/01/19 10:36:41;;;;;;;16.77;8.55;;;;;;;4.55;91.79;101164.44;4990341;28;20068;-92
2024/01/19 10:39:23;;;;;;;14.07;5.55;;;;;;;5.98;86.18;101173.91;4994497;28;20110;-94
2024/01/19 10:41:49;;;;;;;;;;;;;;;6.25;81.51;101167.19;4993313;28;20382;-95
2024/01/19 10:44:20;;;;;;;16.27;7.13;;;;;;;6.86;80.42;101162.84;4993570;28;20016;-94
2024/01/19 10:46:46;;;;;;;8.70;4.05;;;;;;;7.80;72.44;101159.81;4991231;28;20096;-95
2024/01/19 10:49:15;;;;;;;10.20;3.45;;;;;;;7.35;69.50;101169.91;4991704;28;20134;-94
2024/01/19 10:51:43;;;;;;;7.53;4.07;;;;;;;8.79;66.12;101172.56;4990947;28;20581;-95
2024/01/19 10:54:15;;;;;;;7.32;3.30;;;;;;;9.29;63.06;101172.34;4988955;28;20393;-95
2024/01/19 10:56:42;;;;;;;7.50;3.10;;;;;;;10.34;58.13;101173.06;4991695;28;20084;-95
2024/01/19 10:59:16;;;;;;;7.80;3.85;;;;;;;10.81;55.28;101168.34;4992044;28;20038;-95
2024/01/19 11:01:42;;;;;;;12.45;3.95;;;;;;;11.44;54.67;101170.50;4991459;28;20019;-94
2024/01/19 11:04:10;;;;;;;9.45;3.65;;;;;;;11.68;53.36;101175.34;4994290;28;20033;-96
2024/01/19 11:06:36;;;;;;;8.00;3.75;;;;;;;11.99;51.82;101174.66;4992297;28;20050;-96
2024/01/19 11:09:06;;;;;;;11.57;4.00;;;;;;;11.97;50.29;101181.66;4992333;28;20030;-95
2024/01/19 11:11:37;;;;;;;10.02;3.70;;;;;;;11.52;50.69;101186.44;4991659;28;20025;-95